Time;durP1;ratioP1;P1;durP2;ratioP2;P2;SDS_P1;SDS_P2;PMS_P1;PMS_P2;Temp;Humidity;BMP_temperature;BMP_pressure;BME280_temperature;BME280_humidity;BME280_pressure;Samples;Min_cycle;Max_cycle;Signal;HPM_P1;HPM_P2
2022/07/23 00:01:16;;;;;;;8.68;5.75;;;25.90;91.50;;;;;;5059243;28;20021;-88
2022/07/23 00:03:42;;;;;;;6.90;5.38;;;25.90;91.60;;;;;;5059591;28;20433;-88
2022/07/23 00:06:07;;;;;;;7.55;5.90;;;25.80;91.50;;;;;;5058784;28;20036;-88
2022/07/23 00:08:33;;;;;;;10.55;5.70;;;25.80;91.50;;;;;;5059521;28;20051;-88
2022/07/23 00:11:00;;;;;;;6.07;5.03;;;25.80;91.50;;;;;;5059155;28;20020;-88
2022/07/23 00:13:26;;;;;;;7.68;5.53;;;25.80;91.50;;;;;;5058940;28;20040;-88
2022/07/23 00:15:51;;;;;;;7.65;5.70;;;25.80;91.80;;;;;;5059362;28;20040;-88
2022/07/23 00:18:17;;;;;;;8.02;5.80;;;25.70;91.30;;;;;;5058986;28;20025;-87
2022/07/23 00:20:43;;;;;;;7.95;5.40;;;25.70;91.20;;;;;;5059306;28;20024;-88
2022/07/23 00:23:08;;;;;;;7.05;5.47;;;25.70;91.20;;;;;;5058960;28;20021;-88
2022/07/23 00:25:34;;;;;;;6.90;5.22;;;25.70;91.30;;;;;;5059494;28;20541;-88
2022/07/23 00:28:01;;;;;;;7.70;5.28;;;25.60;91.20;;;;;;5058629;28;20429;-89
2022/07/23 00:30:31;;;;;;;6.32;5.35;;;25.60;91.20;;;;;;5070790;28;20044;-88
2022/07/23 00:32:59;;;;;;;7.82;5.00;;;25.60;91.20;;;;;;5059058;28;20031;-87
2022/07/23 00:35:26;;;;;;;7.78;5.13;;;25.60;91.20;;;;;;5059147;28;20060;-88
2022/07/23 00:37:52;;;;;;;7.55;5.28;;;25.60;91.10;;;;;;5058844;28;20033;-88
2022/07/23 00:40:18;;;;;;;9.38;5.30;;;25.60;91.00;;;;;;5058456;28;20083;-87
2022/07/23 00:42:44;;;;;;;8.93;5.00;;;25.60;90.70;;;;;;5058566;28;20032;-87
2022/07/23 00:45:09;;;;;;;8.18;4.85;;;25.50;90.70;;;;;;5058565;28;20473;-87
2022/07/23 00:47:36;;;;;;;6.03;4.47;;;25.50;90.80;;;;;;5058743;28;20048;-88
2022/07/23 00:50:03;;;;;;;10.23;4.72;;;25.50;90.90;;;;;;5058338;28;20028;-88
2022/07/23 00:52:29;;;;;;;7.57;5.15;;;25.40;91.00;;;;;;5058503;28;20016;-87
2022/07/23 00:54:55;;;;;;;6.88;5.00;;;25.40;91.10;;;;;;5058639;28;20186;-87
2022/07/23 00:57:21;;;;;;;7.80;5.18;;;25.30;91.30;;;;;;5058623;28;20475;-87
2022/07/23 00:59:46;;;;;;;8.68;5.40;;;25.30;91.40;;;;;;5058668;28;20021;-87
2022/07/23 01:02:12;;;;;;;8.70;4.80;;;25.30;91.40;;;;;;5058323;28;20043;-87
2022/07/23 01:04:38;;;;;;;6.28;5.30;;;25.20;91.50;;;;;;5058074;28;20520;-87
2022/07/23 01:07:03;;;;;;;9.50;5.60;;;25.20;91.60;;;;;;5057164;28;20028;-89
2022/07/23 01:09:30;;;;;;;6.63;5.50;;;25.20;91.70;;;;;;5057660;28;20111;-87
2022/07/23 01:11:56;;;;;;;7.70;5.40;;;25.10;91.80;;;;;;5058058;28;20021;-86
2022/07/23 01:14:22;;;;;;;7.53;5.10;;;25.10;91.90;;;;;;5075628;28;20086;-87
2022/07/23 01:16:49;;;;;;;6.10;5.07;;;25.10;91.90;;;;;;5058315;28;20029;-88
2022/07/23 01:19:16;;;;;;;5.90;4.88;;;25.00;91.90;;;;;;5058100;28;20462;-87
2022/07/23 01:21:48;;;;;;;7.43;5.78;;;25.00;91.90;;;;;;5057974;28;20024;-87
2022/07/23 01:24:14;;;;;;;8.57;5.43;;;25.00;91.90;;;;;;5057631;28;20025;-87
2022/07/23 01:26:43;;;;;;;6.90;5.13;;;24.90;92.20;;;;;;5057690;28;20090;-87
2022/07/23 01:29:10;;;;;;;10.50;5.15;;;24.90;92.60;;;;;;5075105;28;20035;-88
2022/07/23 01:31:35;;;;;;;8.82;5.38;;;24.70;92.30;;;;;;5058186;28;20047;-87
2022/07/23 01:34:01;;;;;;;8.63;5.30;;;24.70;92.60;;;;;;5057836;28;20474;-90
2022/07/23 01:36:27;;;;;;;7.80;5.22;;;24.70;92.60;;;;;;5057666;28;20027;-88
2022/07/23 01:38:53;;;;;;;9.93;5.40;;;24.70;92.70;;;;;;5057877;28;20028;-87
2022/07/23 01:41:19;;;;;;;7.90;5.45;;;24.60;92.80;;;;;;5056925;28;20021;-87
2022/07/23 01:43:44;;;;;;;7.25;5.15;;;24.70;92.90;;;;;;5056443;28;20064;-87
2022/07/23 01:46:10;;;;;;;7.15;5.10;;;24.60;92.80;;;;;;5057049;28;20047;-87
2022/07/23 01:48:36;;;;;;;8.93;5.40;;;24.60;92.80;;;;;;5074447;28;20456;-87
2022/07/23 01:51:02;;;;;;;6.90;5.40;;;24.60;92.70;;;;;;5074508;28;20059;-87
2022/07/23 01:53:30;;;;;;;8.52;4.78;;;24.60;92.70;;;;;;5057309;28;20457;-86
2022/07/23 01:55:57;;;;;;;6.93;4.95;;;24.60;92.60;;;;;;5057444;28;20029;-87
2022/07/23 01:58:22;;;;;;;7.15;4.68;;;24.60;92.50;;;;;;5056922;28;20340;-86
2022/07/23 02:00:48;;;;;;;6.63;4.70;;;24.60;92.50;;;;;;5054038;28;20074;-87
2022/07/23 02:03:14;;;;;;;7.53;5.00;;;24.60;92.20;;;;;;5054852;28;20029;-86
2022/07/23 02:05:40;;;;;;;5.15;4.40;;;24.60;92.10;;;;;;5057106;28;20032;-86
2022/07/23 02:08:05;;;;;;;7.60;5.78;;;24.60;92.20;;;;;;5057145;28;20370;-88
2022/07/23 02:10:31;;;;;;;7.13;5.30;;;24.50;92.20;;;;;;5056864;28;20145;-88
2022/07/23 02:12:56;;;;;;;6.55;4.68;;;24.50;92.20;;;;;;5057494;28;20033;-88
2022/07/23 02:15:23;;;;;;;5.97;4.57;;;24.40;92.20;;;;;;5056775;28;20029;-87
2022/07/23 02:17:48;;;;;;;8.20;4.70;;;24.40;92.20;;;;;;5057051;28;20027;-88
2022/07/23 02:20:15;;;;;;;8.05;4.53;;;24.40;92.30;;;;;;5056458;28;20024;-88
2022/07/23 02:22:40;;;;;;;6.82;5.20;;;24.30;92.10;;;;;;5056983;28;20029;-88
2022/07/23 02:25:07;;;;;;;8.88;4.72;;;24.30;92.30;;;;;;5056286;28;20035;-88
2022/07/23 02:27:33;;;;;;;7.05;4.70;;;24.30;92.40;;;;;;5057392;28;20544;-88
2022/07/23 02:30:00;;;;;;;7.22;4.53;;;24.30;92.40;;;;;;5075160;28;20025;-87
2022/07/23 02:32:25;;;;;;;6.05;4.15;;;24.20;92.40;;;;;;5056511;28;20192;-87
2022/07/23 02:34:51;;;;;;;6.65;4.13;;;24.20;92.60;;;;;;5056497;28;20040;-87
2022/07/23 02:37:17;;;;;;;5.60;4.47;;;24.20;92.70;;;;;;5056426;28;20039;-86
2022/07/23 02:39:43;;;;;;;5.47;4.70;;;24.10;92.90;;;;;;5056749;28;20025;-87
2022/07/23 02:42:08;;;;;;;7.75;4.60;;;24.00;93.00;;;;;;5056283;28;20376;-88
2022/07/23 02:44:34;;;;;;;5.97;4.57;;;24.00;92.90;;;;;;5056408;28;20123;-87
2022/07/23 02:47:00;;;;;;;6.07;4.72;;;24.10;92.70;;;;;;5056682;28;20028;-87
2022/07/23 02:49:25;;;;;;;9.73;4.82;;;24.00;92.80;;;;;;5073792;28;20072;-87
2022/07/23 02:51:51;;;;;;;6.43;4.93;;;24.00;93.10;;;;;;5074257;28;20454;-87
2022/07/23 02:54:17;;;;;;;6.97;4.22;;;23.90;93.00;;;;;;5055640;28;20040;-87
2022/07/23 02:56:42;;;;;;;6.43;4.80;;;23.90;93.30;;;;;;5056091;28;20024;-87
2022/07/23 02:59:08;;;;;;;6.93;4.07;;;23.90;93.20;;;;;;5055969;28;20066;-88
2022/07/23 03:01:34;;;;;;;6.13;4.05;;;23.90;93.00;;;;;;5056273;28;20127;-87
2022/07/23 03:04:00;;;;;;;7.50;4.28;;;23.90;92.60;;;;;;5056193;28;20032;-87
2022/07/23 03:06:25;;;;;;;6.80;3.88;;;24.00;91.90;;;;;;5055656;28;20074;-87
2022/07/23 03:08:51;;;;;;;6.47;3.65;;;24.00;91.70;;;;;;5056086;28;20055;-87
2022/07/23 03:11:17;;;;;;;5.95;4.32;;;24.00;91.50;;;;;;5056036;28;20404;-87
2022/07/23 03:13:42;;;;;;;5.32;3.90;;;24.00;91.10;;;;;;5056198;28;20029;-87
2022/07/23 03:16:08;;;;;;;5.43;3.38;;;24.00;91.00;;;;;;5055892;28;20021;-89
2022/07/23 03:18:34;;;;;;;5.32;3.42;;;23.90;91.00;;;;;;5055940;28;20042;-87
2022/07/23 03:20:59;;;;;;;4.32;3.63;;;23.90;90.80;;;;;;5073790;28;20020;-86
2022/07/23 03:23:25;;;;;;;5.78;3.55;;;23.90;90.70;;;;;;5055557;28;20108;-86
2022/07/23 03:25:51;;;;;;;4.28;3.40;;;23.90;90.60;;;;;;5073741;28;20458;-86
2022/07/23 03:28:18;;;;;;;5.32;3.88;;;23.90;90.40;;;;;;5054953;28;20048;-87
2022/07/23 03:30:46;;;;;;;6.00;3.63;;;23.90;90.30;;;;;;5055686;28;20598;-86
2022/07/23 03:33:13;;;;;;;4.10;3.33;;;23.90;90.20;;;;;;5052931;28;20469;-87
2022/07/23 03:35:39;;;;;;;4.78;3.47;;;23.90;90.30;;;;;;5055312;28;20038;-87
2022/07/23 03:38:04;;;;;;;6.40;3.67;;;23.90;90.20;;;;;;5056012;28;20115;-87
2022/07/23 03:40:30;;;;;;;4.50;3.40;;;23.90;90.10;;;;;;5055119;28;20711;-87
2022/07/23 03:42:55;;;;;;;5.10;3.58;;;23.90;90.10;;;;;;5055909;28;20358;-87
2022/07/23 03:45:21;;;;;;;4.57;3.13;;;23.80;90.00;;;;;;5073561;28;20097;-87
2022/07/23 03:47:47;;;;;;;4.45;3.40;;;23.80;90.00;;;;;;5056069;28;20052;-88
2022/07/23 03:50:12;;;;;;;7.60;3.95;;;23.80;90.00;;;;;;5055969;28;20052;-89
2022/07/23 03:52:38;;;;;;;5.25;3.45;;;23.70;90.10;;;;;;5074155;28;20036;-87
2022/07/23 03:55:04;;;;;;;5.13;3.10;;;23.70;90.00;;;;;;5056045;28;20067;-87
2022/07/23 03:57:30;;;;;;;6.25;3.63;;;23.70;90.00;;;;;;5055810;28;20063;-87
2022/07/23 03:59:56;;;;;;;6.28;3.25;;;23.80;89.90;;;;;;5073693;28;20024;-88
2022/07/23 04:02:21;;;;;;;4.10;3.20;;;23.80;89.90;;;;;;5073074;28;20036;-87
2022/07/23 04:04:47;;;;;;;4.63;3.42;;;23.70;90.20;;;;;;5073378;28;20025;-87
2022/07/23 04:07:13;;;;;;;4.68;3.47;;;23.60;90.10;;;;;;5075450;28;20385;-88
2022/07/23 04:09:42;;;;;;;4.95;3.38;;;23.60;90.20;;;;;;5059875;28;20058;-87
2022/07/23 04:12:08;;;;;;;5.78;3.38;;;23.60;90.30;;;;;;5059307;28;20017;-87
2022/07/23 04:14:34;;;;;;;4.82;3.33;;;23.60;90.50;;;;;;5059038;28;20020;-87
2022/07/23 04:17:00;;;;;;;3.63;3.10;;;23.50;90.60;;;;;;5059082;28;20031;-87
2022/07/23 04:19:26;;;;;;;4.65;2.90;;;23.50;90.80;;;;;;5076536;28;20036;-87
2022/07/23 04:21:52;;;;;;;5.65;3.38;;;23.50;91.20;;;;;;5059163;28;20021;-87
2022/07/23 04:24:18;;;;;;;4.95;3.60;;;23.50;91.50;;;;;;5058713;28;20495;-87
2022/07/23 04:26:44;;;;;;;5.53;3.47;;;23.50;91.90;;;;;;5058673;28;20134;-87
2022/07/23 04:29:10;;;;;;;7.90;3.80;;;23.50;92.20;;;;;;5076961;28;20107;-87
2022/07/23 04:31:35;;;;;;;6.13;4.10;;;23.50;92.70;;;;;;5076884;28;20059;-87
2022/07/23 04:34:01;;;;;;;4.90;3.95;;;23.30;93.70;;;;;;5059311;28;20462;-87
2022/07/23 04:36:27;;;;;;;5.60;4.18;;;23.10;94.10;;;;;;5076515;28;20449;-87
2022/07/23 04:38:53;;;;;;;9.07;3.97;;;23.10;94.90;;;;;;5058309;28;20056;-87
2022/07/23 04:41:19;;;;;;;7.85;4.20;;;23.10;95.30;;;;;;5058188;28;20095;-88
2022/07/23 04:43:44;;;;;;;5.28;4.25;;;23.10;95.50;;;;;;5058676;28;20036;-87
2022/07/23 04:46:10;;;;;;;8.75;4.50;;;23.20;95.20;;;;;;5058182;28;20036;-87
2022/07/23 04:48:36;;;;;;;5.93;4.03;;;23.10;95.20;;;;;;5058692;28;20021;-87
2022/07/23 04:51:02;;;;;;;4.32;3.40;;;23.10;95.40;;;;;;5076688;28;20535;-87
2022/07/23 04:53:28;;;;;;;6.45;3.90;;;23.20;95.20;;;;;;5058666;28;20043;-87
2022/07/23 04:55:53;;;;;;;6.82;4.32;;;23.20;95.20;;;;;;5076715;28;20021;-87
2022/07/23 04:58:20;;;;;;;6.75;3.72;;;23.10;96.50;;;;;;5058333;28;20024;-87
2022/07/23 05:00:45;;;;;;;7.03;4.00;;;23.10;96.20;;;;;;5058702;28;20103;-88
2022/07/23 05:03:11;;;;;;;6.90;4.80;;;23.10;96.50;;;;;;5058549;28;20055;-87
2022/07/23 05:05:37;;;;;;;6.97;4.30;;;23.00;97.20;;;;;;5057444;28;20029;-86
2022/07/23 05:08:03;;;;;;;7.45;4.40;;;23.00;97.30;;;;;;5058325;28;20075;-86
2022/07/23 05:10:28;;;;;;;7.05;4.40;;;22.90;97.80;;;;;;5057719;28;20021;-87
2022/07/23 05:12:54;;;;;;;7.70;4.07;;;22.90;97.30;;;;;;5058561;28;20033;-87
2022/07/23 05:15:20;;;;;;;6.03;4.20;;;23.00;97.20;;;;;;5074813;28;20470;-88
2022/07/23 05:17:45;;;;;;;5.63;4.25;;;22.90;97.00;;;;;;5058045;28;20029;-87
2022/07/23 05:20:11;;;;;;;7.50;4.65;;;23.00;97.00;;;;;;5058140;28;20100;-87
2022/07/23 05:22:37;;;;;;;6.78;4.50;;;22.90;97.60;;;;;;5057880;28;20024;-87
2022/07/23 05:25:04;;;;;;;8.50;4.57;;;22.90;98.20;;;;;;5058164;28;20063;-87
2022/07/23 05:27:30;;;;;;;6.10;4.85;;;22.90;99.00;;;;;;5045759;28;20056;-87
2022/07/23 05:29:55;;;;;;;7.70;4.22;;;22.90;99.40;;;;;;5055628;28;20025;-86
2022/07/23 05:32:21;;;;;;;7.53;4.75;;;22.90;99.90;;;;;;5055033;28;20470;-87
2022/07/23 05:34:48;;;;;;;5.75;4.43;;;22.90;99.90;;;;;;5055662;28;20033;-87
2022/07/23 05:37:13;;;;;;;9.82;4.47;;;22.90;99.90;;;;;;5037562;28;20127;-87
2022/07/23 05:39:39;;;;;;;8.88;4.70;;;23.00;99.90;;;;;;5037700;28;20773;-87
2022/07/23 05:42:05;;;;;;;6.40;4.38;;;23.00;99.90;;;;;;5037894;28;20120;-88
2022/07/23 05:44:30;;;;;;;7.15;4.00;;;23.10;99.60;;;;;;5037452;28;20029;-88
2022/07/23 05:46:56;;;;;;;5.75;4.65;;;23.10;99.50;;;;;;5038202;28;20025;-88
2022/07/23 05:49:21;;;;;;;7.10;4.47;;;23.20;99.90;;;;;;5037507;28;20032;-88
2022/07/23 05:51:47;;;;;;;7.75;4.75;;;23.10;99.90;;;;;;5037562;28;20027;-88
2022/07/23 05:54:13;;;;;;;6.82;4.47;;;23.10;99.90;;;;;;5054837;28;20486;-87
2022/07/23 05:56:38;;;;;;;6.78;4.47;;;23.10;99.90;;;;;;5037244;28;20056;-88
2022/07/23 05:59:04;;;;;;;6.57;4.43;;;23.10;99.90;;;;;;5037767;28;20462;-87
2022/07/23 06:01:29;;;;;;;7.43;4.07;;;23.20;99.90;;;;;;5037269;28;20114;-87
2022/07/23 06:03:55;;;;;;;7.32;4.15;;;23.20;99.90;;;;;;5055444;28;20072;-87
2022/07/23 06:06:21;;;;;;;8.13;4.28;;;23.20;99.90;;;;;;5037028;28;20044;-88
2022/07/23 06:08:46;;;;;;;5.55;4.40;;;23.10;99.90;;;;;;5055157;28;20033;-87
2022/07/23 06:11:12;;;;;;;6.65;4.75;;;23.20;99.90;;;;;;5037611;28;20029;-87
2022/07/23 06:13:37;;;;;;;8.23;4.55;;;23.30;99.90;;;;;;5036941;28;20035;-87
2022/07/23 06:16:03;;;;;;;6.50;4.63;;;23.20;99.90;;;;;;5036971;28;20021;-87
2022/07/23 06:18:29;;;;;;;8.75;5.18;;;23.30;99.90;;;;;;5036408;28;20036;-87
2022/07/23 06:20:55;;;;;;;8.70;4.82;;;23.30;99.90;;;;;;5037334;28;20529;-87
2022/07/23 06:23:20;;;;;;;6.53;4.28;;;23.20;99.90;;;;;;5037349;28;20120;-88
2022/07/23 06:25:46;;;;;;;6.75;4.53;;;23.30;99.90;;;;;;5037024;28;20052;-86
2022/07/23 06:28:11;;;;;;;7.40;4.53;;;23.30;99.90;;;;;;5051088;28;20068;-86
2022/07/23 06:30:37;;;;;;;7.68;4.90;;;23.30;99.90;;;;;;5052864;28;20028;-86
2022/07/23 06:33:03;;;;;;;8.15;5.60;;;23.30;99.90;;;;;;5053528;28;20470;-85
2022/07/23 06:35:29;;;;;;;7.97;4.95;;;23.40;99.90;;;;;;5047482;28;20044;-86
2022/07/23 06:37:54;;;;;;;7.38;4.80;;;23.50;99.90;;;;;;5053574;28;20037;-86
2022/07/23 06:40:20;;;;;;;7.45;4.50;;;23.50;99.90;;;;;;5043470;28;20120;-88
2022/07/23 06:42:46;;;;;;;7.22;4.68;;;23.60;99.90;;;;;;5054223;28;20029;-86
2022/07/23 06:45:11;;;;;;;7.15;4.30;;;23.60;99.90;;;;;;5033544;28;20120;-86
2022/07/23 06:47:38;;;;;;;5.95;4.35;;;23.70;99.90;;;;;;5045476;28;20021;-87
2022/07/23 06:50:04;;;;;;;8.57;4.93;;;23.60;99.90;;;;;;5053461;28;20035;-87
2022/07/23 06:52:30;;;;;;;6.65;4.57;;;23.60;99.90;;;;;;5053446;28;20025;-87
2022/07/23 06:54:55;;;;;;;8.60;5.10;;;23.80;99.90;;;;;;5044713;28;20040;-87
2022/07/23 06:57:21;;;;;;;7.60;4.90;;;23.80;99.90;;;;;;5053729;28;20025;-88
2022/07/23 06:59:47;;;;;;;7.35;4.97;;;23.90;99.90;;;;;;5036837;28;20025;-88
2022/07/23 07:02:12;;;;;;;9.02;5.55;;;23.80;99.90;;;;;;5054050;28;20462;-88
2022/07/23 07:04:38;;;;;;;7.18;5.05;;;23.90;99.90;;;;;;5036135;28;20068;-88
2022/07/23 07:07:04;;;;;;;7.50;4.60;;;23.90;99.90;;;;;;5036784;28;20100;-88
2022/07/23 07:09:29;;;;;;;6.28;4.35;;;24.00;99.50;;;;;;5036145;28;20029;-88
2022/07/23 07:11:55;;;;;;;7.25;5.15;;;24.00;98.80;;;;;;5053990;28;20024;-88
2022/07/23 07:14:21;;;;;;;8.20;4.22;;;23.90;97.90;;;;;;5036412;28;20096;-88
2022/07/23 07:16:46;;;;;;;7.05;3.80;;;24.00;97.50;;;;;;5036113;28;20029;-88
2022/07/23 07:19:12;;;;;;;5.45;4.07;;;24.00;97.20;;;;;;5036553;28;20028;-88
2022/07/23 07:21:38;;;;;;;6.78;4.03;;;23.90;97.00;;;;;;5035975;28;20025;-88
2022/07/23 07:24:04;;;;;;;7.50;4.55;;;23.90;96.90;;;;;;5036549;28;20036;-88
2022/07/23 07:26:30;;;;;;;4.90;3.63;;;24.00;96.60;;;;;;5056489;28;20048;-88
2022/07/23 07:28:57;;;;;;;6.20;4.38;;;24.00;96.70;;;;;;5056720;28;20024;-89
2022/07/23 07:31:22;;;;;;;6.85;4.30;;;23.90;97.00;;;;;;5055632;28;20052;-89
2022/07/23 07:33:48;;;;;;;5.85;4.30;;;23.90;97.20;;;;;;5056109;28;20064;-88
2022/07/23 07:36:14;;;;;;;5.25;4.00;;;23.90;97.10;;;;;;5056108;28;20037;-88
2022/07/23 07:38:39;;;;;;;8.63;4.10;;;23.90;96.60;;;;;;5055707;28;20025;-88
2022/07/23 07:41:05;;;;;;;5.68;4.15;;;23.90;96.60;;;;;;5056749;28;20020;-88
2022/07/23 07:43:31;;;;;;;5.18;4.30;;;23.90;96.50;;;;;;5059615;28;20064;-88
2022/07/23 07:45:56;;;;;;;7.43;4.63;;;23.90;96.50;;;;;;5060218;28;20354;-88
2022/07/23 07:48:22;;;;;;;7.10;4.20;;;23.90;96.50;;;;;;5077782;28;20046;-88
2022/07/23 07:50:47;;;;;;;7.43;4.45;;;24.00;96.70;;;;;;5059474;28;20036;-88
2022/07/23 07:53:13;;;;;;;5.00;4.28;;;24.00;96.50;;;;;;5060054;28;20025;-88
2022/07/23 07:55:39;;;;;;;6.53;4.40;;;24.00;96.60;;;;;;5059369;28;20040;-88
2022/07/23 07:58:05;;;;;;;5.68;4.78;;;24.10;96.70;;;;;;5077226;28;20079;-88
2022/07/23 08:00:30;;;;;;;6.93;4.15;;;24.10;96.40;;;;;;5059317;28;20036;-88
2022/07/23 08:02:56;;;;;;;9.52;4.50;;;24.10;96.50;;;;;;5077113;28;20028;-88
2022/07/23 08:05:28;;;;;;;5.90;4.45;;;24.10;96.80;;;;;;5059687;28;20495;-88
2022/07/23 08:07:55;;;;;;;7.10;4.32;;;24.10;96.80;;;;;;5060005;28;20036;-88
2022/07/23 08:10:21;;;;;;;7.63;5.30;;;24.10;96.60;;;;;;5059634;28;20037;-88
2022/07/23 08:12:49;;;;;;;7.60;4.57;;;24.10;96.50;;;;;;5058963;28;20386;-88
2022/07/23 08:15:17;;;;;;;7.68;5.50;;;24.10;96.30;;;;;;5077181;28;20028;-89
2022/07/23 08:17:44;;;;;;;8.55;5.55;;;24.10;96.20;;;;;;5058600;28;20029;-89
2022/07/23 08:20:11;;;;;;;7.60;4.93;;;24.10;96.10;;;;;;5059413;28;20131;-88
2022/07/23 08:22:50;;;;;;;8.18;4.60;;;24.10;96.30;;;;;;5059054;28;20453;-88
2022/07/23 08:25:21;;;;;;;6.72;4.72;;;24.10;96.20;;;;;;5059509;28;20119;-87
2022/07/23 08:27:47;;;;;;;7.43;5.07;;;24.20;96.20;;;;;;5076571;28;20044;-89
2022/07/23 08:30:13;;;;;;;5.45;4.32;;;24.20;96.10;;;;;;5059468;28;20028;-88
2022/07/23 08:33:11;;;;;;;9.02;4.47;;;24.20;95.80;;;;;;5058957;28;20353;-88
2022/07/23 08:35:39;;;;;;;9.30;5.22;;;24.30;95.90;;;;;;5039536;28;20135;-88
2022/07/23 08:38:07;;;;;;;6.80;4.47;;;24.30;95.90;;;;;;5059256;28;20067;-88
2022/07/23 08:40:35;;;;;;;9.07;4.70;;;24.30;96.10;;;;;;5058781;28;20453;-88
2022/07/23 08:43:06;;;;;;;7.13;4.50;;;24.30;95.60;;;;;;5076664;28;20237;-88
2022/07/23 08:45:35;;;;;;;8.68;4.32;;;24.30;95.30;;;;;;5076444;28;20028;-88
2022/07/23 08:48:02;;;;;;;7.07;4.15;;;24.40;95.20;;;;;;5058975;28;20167;-86
2022/07/23 08:50:28;;;;;;;10.88;4.80;;;24.40;95.10;;;;;;5058442;28;20029;-90
2022/07/23 08:52:54;;;;;;;8.40;4.90;;;24.50;95.00;;;;;;5058220;28;20025;-88
2022/07/23 08:55:22;;;;;;;6.80;4.38;;;24.50;94.80;;;;;;5058740;28;20485;-89
2022/07/23 08:57:49;;;;;;;9.52;4.75;;;24.70;94.70;;;;;;5057487;28;20422;-88
2022/07/23 09:00:15;;;;;;;7.97;4.82;;;24.80;94.60;;;;;;5058873;28;20020;-89
2022/07/23 09:02:43;;;;;;;8.45;5.05;;;24.80;94.50;;;;;;5058020;28;20099;-88
2022/07/23 09:05:11;;;;;;;7.45;5.38;;;24.80;94.50;;;;;;5058457;28;20035;-88
2022/07/23 09:07:37;;;;;;;8.80;5.10;;;24.90;94.80;;;;;;5058268;28;20028;-89
2022/07/23 09:10:11;;;;;;;7.82;4.82;;;24.90;94.30;;;;;;5076205;28;20029;-88
2022/07/23 09:12:37;;;;;;;6.65;5.00;;;24.90;93.70;;;;;;5075796;28;20020;-88
2022/07/23 09:15:06;;;;;;;5.78;4.75;;;24.90;93.70;;;;;;5058589;28;20037;-87
2022/07/23 09:17:43;;;;;;;8.40;4.80;;;24.90;94.50;;;;;;5057597;28;20123;-88
2022/07/23 09:20:14;;;;;;;6.90;5.25;;;25.00;93.90;;;;;;5058478;28;20031;-89
2022/07/23 09:22:45;;;;;;;10.68;6.00;;;25.10;93.70;;;;;;5057549;28;20028;-88
2022/07/23 09:25:14;;;;;;;7.57;5.75;;;25.30;94.10;;;;;;5058576;28;20036;-89
2022/07/23 09:27:47;;;;;;;7.50;5.50;;;25.40;93.90;;;;;;5075685;28;20128;-88
2022/07/23 09:30:13;;;;;;;10.38;6.30;;;25.50;93.80;;;;;;5075863;28;20091;-89
2022/07/23 09:32:39;;;;;;;10.73;6.45;;;25.60;94.10;;;;;;5075232;28;20457;-89
2022/07/23 09:35:06;;;;;;;9.88;6.50;;;25.70;94.10;;;;;;5057895;28;20029;-89
2022/07/23 09:37:31;;;;;;;12.50;7.22;;;25.70;94.60;;;;;;5074577;28;20036;-89
2022/07/23 09:40:08;;;;;;;8.93;6.53;;;25.70;94.90;;;;;;5058211;28;20036;-89
2022/07/23 09:42:34;;;;;;;10.07;6.97;;;25.70;95.00;;;;;;5075020;28;20496;-89
2022/07/23 09:45:01;;;;;;;8.50;6.28;;;25.60;95.10;;;;;;5075939;28;20028;-88
2022/07/23 09:47:35;;;;;;;7.97;6.60;;;25.60;94.50;;;;;;5075478;28;20029;-89
2022/07/23 09:50:05;;;;;;;8.63;6.10;;;25.50;94.50;;;;;;5057850;28;20024;-89
2022/07/23 09:52:33;;;;;;;7.13;5.90;;;25.40;94.40;;;;;;5074982;28;20125;-89
2022/07/23 09:55:01;;;;;;;7.97;5.85;;;25.40;94.00;;;;;;5075162;28;20028;-89
2022/07/23 09:57:28;;;;;;;9.32;6.32;;;25.50;94.10;;;;;;5057597;28;20458;-89
2022/07/23 09:59:57;;;;;;;9.73;5.97;;;25.50;94.00;;;;;;5057072;28;20043;-89
2022/07/23 10:02:24;;;;;;;8.38;6.40;;;25.50;93.90;;;;;;5057346;28;20029;-89
2022/07/23 10:04:54;;;;;;;8.15;5.95;;;25.50;94.00;;;;;;5073787;28;20486;-88
2022/07/23 10:07:23;;;;;;;7.10;5.78;;;25.60;94.20;;;;;;5075056;28;20126;-89
2022/07/23 10:09:52;;;;;;;8.15;5.68;;;25.60;93.80;;;;;;5056756;28;20200;-90
2022/07/23 10:14:53;;;;;;;7.85;5.80;;;25.70;93.40;;;;;;5074383;28;20033;-89
2022/07/23 10:17:19;;;;;;;7.68;5.30;;;25.70;93.60;;;;;;5056817;28;20027;-89
2022/07/23 10:19:44;;;;;;;8.20;5.38;;;25.80;93.30;;;;;;5056627;28;20025;-88
2022/07/23 10:22:18;;;;;;;11.55;5.95;;;25.90;93.10;;;;;;5056894;28;20032;-89
2022/07/23 10:25:08;;;;;;;7.60;5.30;;;25.90;93.30;;;;;;5074557;28;20046;-89
2022/07/23 10:28:17;;;;;;;8.32;5.80;;;25.90;93.20;;;;;;5056404;28;20146;-89
2022/07/23 10:31:00;;;;;;;8.27;5.38;;;25.90;93.00;;;;;;5074317;28;20025;-89
2022/07/23 10:34:02;;;;;;;8.25;5.60;;;25.90;92.60;;;;;;5058800;28;20060;-88
2022/07/23 10:36:42;;;;;;;7.35;5.65;;;26.00;92.90;;;;;;5057475;28;20099;-89
2022/07/23 10:39:12;;;;;;;8.02;5.15;;;26.00;92.20;;;;;;5056923;28;20029;-89
2022/07/23 10:41:41;;;;;;;7.47;4.75;;;26.10;91.50;;;;;;5073854;28;20021;-88
2022/07/23 10:44:16;;;;;;;7.50;5.18;;;26.20;91.50;;;;;;5056826;28;20167;-89
2022/07/23 10:49:30;;;;;;;9.80;5.65;;;26.30;91.50;;;;;;5074256;28;20025;-89
2022/07/23 10:52:14;;;;;;;7.03;5.28;;;26.40;91.30;;;;;;5056022;28;20028;-88
2022/07/23 10:54:50;;;;;;;6.00;4.72;;;26.50;91.20;;;;;;5055942;28;20032;-88
2022/07/23 10:57:18;;;;;;;6.45;4.38;;;26.60;89.10;;;;;;5056429;28;20032;-88
2022/07/23 11:00:14;;;;;;;7.50;5.20;;;26.60;89.20;;;;;;5056039;28;20462;-89
2022/07/23 11:02:43;;;;;;;7.22;5.10;;;26.70;90.30;;;;;;5056148;28;20025;-89
2022/07/23 11:05:14;;;;;;;9.00;5.68;;;26.70;90.70;;;;;;5056217;28;20028;-88
2022/07/23 11:08:07;;;;;;;9.48;5.38;;;26.80;90.60;;;;;;5055627;28;20166;-88
2022/07/23 11:10:43;;;;;;;7.57;5.57;;;26.90;90.70;;;;;;5074159;28;20025;-89
2022/07/23 11:13:28;;;;;;;7.93;5.88;;;27.00;90.70;;;;;;5056536;28;20028;-88
2022/07/23 11:16:05;;;;;;;9.23;6.28;;;27.20;90.90;;;;;;5055525;28;20064;-88
2022/07/23 11:18:40;;;;;;;10.30;5.85;;;27.30;90.20;;;;;;5056194;28;20036;-88
2022/07/23 11:21:28;;;;;;;6.30;5.07;;;27.50;90.00;;;;;;5056053;28;20036;-88
2022/07/23 11:24:18;;;;;;;7.38;5.00;;;27.50;88.90;;;;;;5055915;28;20028;-88
2022/07/23 11:26:44;;;;;;;5.78;4.95;;;27.50;87.80;;;;;;5072518;28;20429;-88
2022/07/23 11:29:28;;;;;;;7.18;5.57;;;27.50;88.30;;;;;;5074047;28;20028;-88
2022/07/23 11:32:00;;;;;;;9.30;5.93;;;27.50;88.10;;;;;;5055588;28;20127;-88
2022/07/23 11:34:40;;;;;;;8.88;5.55;;;27.50;88.60;;;;;;5056013;28;20033;-88
2022/07/23 11:37:08;;;;;;;7.18;4.63;;;27.50;88.10;;;;;;5055764;28;20039;-88
2022/07/23 11:39:35;;;;;;;7.75;5.47;;;27.50;87.60;;;;;;5056256;28;20033;-88
2022/07/23 11:42:04;;;;;;;10.00;5.85;;;27.60;86.70;;;;;;5055384;28;20477;-88
2022/07/23 11:44:39;;;;;;;6.45;5.03;;;27.70;86.60;;;;;;5056082;28;20036;-88
2022/07/23 11:47:10;;;;;;;6.97;5.05;;;27.80;85.40;;;;;;5056475;28;20028;-88
2022/07/23 11:49:36;;;;;;;;;;;27.80;84.50;;;;;;5056812;28;20040;-88
2022/07/23 11:52:12;;;;;;;9.75;6.03;;;28.00;83.90;;;;;;5055736;28;19908;-88
2022/07/23 11:54:52;;;;;;;7.15;5.38;;;28.00;83.80;;;;;;5056599;28;20028;-88
2022/07/23 11:57:19;;;;;;;10.65;7.07;;;28.10;84.30;;;;;;5056052;28;20139;-87
2022/07/23 11:59:47;;;;;;;9.18;6.05;;;28.10;82.30;;;;;;5055099;28;20120;-87
2022/07/23 12:02:13;;;;;;;7.63;5.38;;;28.10;81.60;;;;;;5073699;28;20024;-88
2022/07/23 12:04:47;;;;;;;6.18;5.55;;;28.10;82.00;;;;;;5055719;28;20035;-89
2022/07/23 12:07:45;;;;;;;7.00;5.15;;;28.10;82.50;;;;;;5055720;28;20393;-88
2022/07/23 12:10:15;;;;;;;6.90;5.47;;;28.20;84.10;;;;;;5055820;28;20024;-88
2022/07/23 12:12:50;;;;;;;6.47;5.10;;;28.20;84.80;;;;;;5055075;28;20024;-88
2022/07/23 12:15:17;;;;;;;8.25;5.32;;;28.30;85.10;;;;;;5073290;28;20115;-88
2022/07/23 12:17:46;;;;;;;8.82;5.28;;;28.40;85.00;;;;;;5054981;28;20092;-88
2022/07/23 12:20:15;;;;;;;7.68;5.88;;;28.50;84.20;;;;;;5055519;28;20102;-87
2022/07/23 12:22:47;;;;;;;9.23;5.47;;;28.40;84.00;;;;;;5055355;28;20024;-88
2022/07/23 12:25:18;;;;;;;8.48;5.97;;;28.40;84.30;;;;;;5055795;28;20033;-88
2022/07/23 12:27:44;;;;;;;;;;;28.30;83.70;;;;;;5057007;28;20048;-88
2022/07/23 12:30:24;;;;;;;6.53;5.53;;;28.40;83.40;;;;;;5059131;28;19950;-89
2022/07/23 12:32:53;;;;;;;8.07;5.70;;;28.60;83.40;;;;;;5058752;28;20028;-88
2022/07/23 12:35:19;;;;;;;6.47;5.30;;;28.60;83.10;;;;;;5058810;28;20036;-89
2022/07/23 12:37:47;;;;;;;8.60;5.75;;;28.50;82.70;;;;;;5058716;28;20051;-88
2022/07/23 12:40:32;;;;;;;7.07;5.45;;;28.60;82.30;;;;;;5059048;28;20029;-88
2022/07/23 12:43:08;;;;;;;6.80;5.68;;;28.70;81.80;;;;;;5058609;28;20465;-89
2022/07/23 12:45:47;;;;;;;6.43;5.78;;;28.70;81.70;;;;;;5058877;28;20028;-88
2022/07/23 12:48:25;;;;;;;7.00;5.00;;;28.80;80.90;;;;;;5058753;28;20025;-88
2022/07/23 12:50:53;;;;;;;8.13;5.10;;;28.80;80.80;;;;;;5058038;28;20024;-87
2022/07/23 12:53:39;;;;;;;8.35;5.10;;;28.80;80.50;;;;;;5076350;28;20031;-88
2022/07/23 12:56:10;;;;;;;5.78;5.13;;;28.80;80.50;;;;;;5075672;28;20032;-88
2022/07/23 12:59:06;;;;;;;5.80;5.05;;;28.90;80.30;;;;;;5058664;28;20016;-88